Airfield :
LOGIN :

Register | Disclaimer

   EN    FR    IT 

 










Legend :    VFR   Marginal VFR   IFR   Intensive IFR   Very Intensive IFR
Visi :
Ceiling :
>= 8 km
>= 3000ft
5 to 8 km
1000 to 3000 ft
1500m to 5 km
500 to 1000 ft
800 to 1500m
200 to 500 ft
< 800m
< 200 ft
Symbols :   Thunderstorms  Fog  Heavy snow  Heavy precipitations  Wind > 20 kt
SIGMETs :     Misc.  Thunderstorms  Icing  Turbulence  Mountain Waves  Volcanic Ashes






- Airport Elevation : 1106 ft


LFSO - Nancy / Ochey

CURRENT METAR :
  • 031130Z AUTO 30008KT 240V350 CAVOK 21/10 Q1013 NOSIG

EXPIRED METARs :
  • 031100Z AUTO 31010KT 250V350 CAVOK 20/10 Q1014 TEMPO SCT025TCU
  • 031030Z AUTO 31010KT 280V340 CAVOK 18/10 Q1014 TEMPO SCT025TCU
  • 031000Z AUTO 30010KT 260V330 CAVOK 18/10 Q1014 TEMPO SCT025TCU
  • 030930Z AUTO 31010KT 280V340 CAVOK 18/11 Q1014 TEMPO SCT025TCU
  • 030900Z AUTO 30008KT 280V340 9999 FEW025 BKN150 19/11 Q1014 TEMPO SCT025TCU

TAF TAF LFSO
Valid from the 03 at 09:00 until the 04 at 09:00 UTC


030800Z 0309/0409 31008KT CAVOK
PROB30
TEMPO 0309/0312 -SHRA SCT025TCU
BECMG 0312/0313 30010G20KT
PROB40
TEMPO 0317/0322 3000 SHRA BKN070TCU
BECMG 0322/0324 32005KT
TEMPO 0403/0407 BKN008



MET'MAP, your aeronautical weather chart ! - Copyright ORBIFLY December 2007 - Disclaimer

ORBIFLY MET'MAP TEAM :

Programming & Development : Alexandra Zaïnal
Concept & original design : Baudouin d'Aumeries
Assistance for programming : Marc-Olivier Méhu
Technical & hardware support : Manuel Goepfert

Contact : metmap@orbifly.com




SOURCES & CREDITS :

   NOAA